createdAt,value
2023-03-21T00:04:06.950Z,0
2023-03-21T00:09:10.959Z,0
2023-03-21T00:14:15.167Z,0
2023-03-21T00:19:19.315Z,0
2023-03-21T00:24:23.477Z,0
2023-03-21T00:29:27.741Z,0
2023-03-21T00:34:42.829Z,0
2023-03-21T00:39:35.976Z,0
2023-03-21T00:44:40.083Z,0
2023-03-21T00:49:44.292Z,0
2023-03-21T00:54:48.418Z,0
2023-03-21T00:59:52.611Z,0
2023-03-21T01:04:54.863Z,0
2023-03-21T01:09:58.999Z,0
2023-03-21T01:15:01.277Z,0
2023-03-21T01:20:05.452Z,0
2023-03-21T01:25:21.968Z,0
2023-03-21T01:30:19.613Z,0
2023-03-21T01:35:17.958Z,0
2023-03-21T01:40:22.128Z,0
2023-03-21T01:45:26.302Z,0
2023-03-21T01:50:30.423Z,0
2023-03-21T01:55:34.589Z,0
2023-03-21T02:00:38.891Z,0
2023-03-21T02:05:42.928Z,0
2023-03-21T02:10:48.858Z,0
2023-03-21T02:15:51.199Z,0
2023-03-21T02:20:55.381Z,0
2023-03-21T02:25:59.564Z,0
2023-03-21T02:31:03.739Z,0
2023-03-21T02:36:14.004Z,0
2023-03-21T02:41:18.407Z,0
2023-03-21T02:46:16.212Z,0
2023-03-21T02:51:20.389Z,0
2023-03-21T02:56:24.524Z,0
2023-03-21T03:01:26.841Z,0
2023-03-21T03:06:30.938Z,0
2023-03-21T03:11:33.225Z,0
2023-03-21T03:16:37.402Z,0
2023-03-21T03:26:45.694Z,0
2023-03-21T03:31:49.917Z,0
2023-03-21T03:36:54.028Z,0
2023-03-21T03:42:18.017Z,0
2023-03-21T03:47:02.339Z,0
2023-03-21T03:52:06.511Z,0
2023-03-21T03:57:10.679Z,0
2023-03-21T04:02:14.998Z,0
2023-03-21T04:07:19.011Z,0
2023-03-21T04:12:23.153Z,0
2023-03-21T04:17:27.325Z,0
2023-03-21T04:22:31.467Z,0
2023-03-21T04:27:35.678Z,0
2023-03-21T04:32:39.816Z,0
2023-03-21T04:37:43.962Z,0
2023-03-21T04:42:48.140Z,0
2023-03-21T04:47:52.302Z,0
2023-03-21T04:52:56.466Z,0
2023-03-21T04:58:00.673Z,0
2023-03-21T05:03:02.865Z,0
2023-03-21T05:13:11.215Z,2
2023-03-21T05:18:13.484Z,5
2023-03-21T05:23:17.655Z,15
2023-03-21T05:28:21.777Z,35
2023-03-21T05:33:25.970Z,66
2023-03-21T05:38:30.117Z,114
2023-03-21T05:43:34.266Z,166
2023-03-21T05:48:38.447Z,199
2023-03-21T05:53:42.596Z,228
2023-03-21T05:58:46.797Z,409
2023-03-21T06:03:51.003Z,720
2023-03-21T06:08:55.073Z,925
2023-03-21T06:13:59.257Z,878
2023-03-21T06:19:03.428Z,998
2023-03-21T06:24:07.576Z,1218
2023-03-21T06:29:11.764Z,1355
2023-03-21T06:34:15.877Z,1505
2023-03-21T06:39:20.064Z,1813
2023-03-21T06:44:24.273Z,1910
2023-03-21T06:49:28.411Z,2001
2023-03-21T06:54:32.557Z,1950
2023-03-21T06:59:36.935Z,1968
2023-03-21T07:04:38.952Z,1964
2023-03-21T07:09:43.125Z,2133
2023-03-21T07:14:45.398Z,2939
2023-03-21T07:19:49.587Z,3011
2023-03-21T07:25:04.379Z,2627
2023-03-21T07:29:57.902Z,1842
2023-03-21T07:35:02.057Z,2119
2023-03-21T07:40:06.217Z,2583
2023-03-21T07:45:10.400Z,2417
2023-03-21T07:50:14.547Z,2259
2023-03-21T07:55:18.710Z,3305
2023-03-21T08:00:23.202Z,3301
2023-03-21T08:05:27.016Z,4070
2023-03-21T08:10:31.194Z,3850
2023-03-21T08:15:35.483Z,3912
2023-03-21T08:20:39.529Z,3661
2023-03-21T08:25:43.690Z,3717
2023-03-21T08:30:47.876Z,3988
2023-03-21T08:35:52.006Z,5408
2023-03-21T08:40:57.231Z,6306
2023-03-21T08:46:00.374Z,6019
2023-03-21T08:51:04.469Z,5837
2023-03-21T08:56:08.638Z,5645
2023-03-21T09:01:10.929Z,5550
2023-03-21T09:06:15.043Z,5296
2023-03-21T09:11:19.254Z,4887
2023-03-21T09:16:23.420Z,4505
2023-03-21T09:21:27.543Z,3695
2023-03-21T09:26:31.723Z,4358
2023-03-21T09:31:35.869Z,5089
2023-03-21T09:36:40.018Z,5880
2023-03-21T09:41:44.218Z,5980
2023-03-21T09:46:48.391Z,6215
2023-03-21T09:51:52.542Z,5231
2023-03-21T09:56:56.726Z,5322
2023-03-21T10:02:00.870Z,6638
2023-03-21T10:07:05.002Z,5826
2023-03-21T10:12:09.198Z,5587
2023-03-21T10:17:13.341Z,5635
2023-03-21T10:22:17.481Z,5862
2023-03-21T10:27:21.665Z,6657
2023-03-21T10:32:25.800Z,6156
2023-03-21T10:37:29.969Z,5905
2023-03-21T10:42:34.162Z,5715
2023-03-21T10:47:36.712Z,6130
2023-03-21T10:52:40.564Z,7526
2023-03-21T10:57:42.868Z,6876
2023-03-21T11:02:47.009Z,5855
2023-03-21T11:07:51.125Z,5920
2023-03-21T11:12:55.303Z,7073
2023-03-21T11:17:59.484Z,7434
2023-03-21T11:23:03.636Z,8826
2023-03-21T11:28:07.783Z,9257
2023-03-21T11:33:11.979Z,9540
2023-03-21T11:38:16.115Z,10795
2023-03-21T11:43:20.320Z,10296
2023-03-21T11:48:24.612Z,8315
2023-03-21T11:53:28.624Z,8290
2023-03-21T11:58:32.795Z,7775
2023-03-21T12:03:47.095Z,6865
2023-03-21T12:08:41.096Z,7886
2023-03-21T12:13:45.251Z,12141
2023-03-21T12:18:49.412Z,10322
2023-03-21T12:23:53.579Z,8366
2023-03-21T12:28:57.721Z,7802
2023-03-21T12:34:01.885Z,8412
2023-03-21T12:39:06.024Z,8035
2023-03-21T12:44:08.305Z,8164
2023-03-21T12:49:12.453Z,8685
2023-03-21T12:54:14.738Z,7854
2023-03-21T12:59:18.899Z,7024
2023-03-21T13:04:23.148Z,4862
2023-03-21T13:09:36.769Z,5982
2023-03-21T13:14:31.381Z,7417
2023-03-21T13:19:33.664Z,7390
2023-03-21T13:24:37.833Z,7544
2023-03-21T13:29:41.987Z,8456
2023-03-21T13:34:46.152Z,8481
2023-03-21T13:39:50.314Z,8444
2023-03-21T13:44:54.443Z,8012
2023-03-21T13:49:58.639Z,7370
2023-03-21T14:00:06.931Z,8064
2023-03-21T14:05:11.190Z,7090
2023-03-21T14:10:15.484Z,7378
2023-03-21T14:15:19.614Z,8041
2023-03-21T14:20:23.707Z,8191
2023-03-21T14:25:31.456Z,8122
2023-03-21T14:30:31.957Z,7930
2023-03-21T14:35:36.237Z,7970
2023-03-21T14:40:40.676Z,7489
2023-03-21T14:45:42.508Z,7050
2023-03-21T14:50:46.690Z,7429
2023-03-21T14:55:48.918Z,7303
2023-03-21T15:00:53.062Z,8277
2023-03-21T15:05:57.275Z,8028
2023-03-21T15:11:07.345Z,6962
2023-03-21T15:16:05.611Z,5885
2023-03-21T15:21:09.757Z,6641
2023-03-21T15:26:13.882Z,7045
2023-03-21T15:31:18.155Z,7063
2023-03-21T15:36:22.320Z,6094
2023-03-21T15:41:26.393Z,6781
2023-03-21T15:46:30.585Z,6915
2023-03-21T15:51:34.674Z,16182
2023-03-21T15:56:38.864Z,6846
2023-03-21T16:01:43.101Z,6486
2023-03-21T16:06:47.196Z,4491
2023-03-21T16:11:51.309Z,5430
2023-03-21T16:16:55.500Z,6807
2023-03-21T16:21:59.649Z,11147
2023-03-21T16:27:03.844Z,10558
2023-03-21T16:32:08.033Z,7529
2023-03-21T16:37:12.161Z,6417
2023-03-21T16:42:14.397Z,5563
2023-03-21T16:47:18.557Z,1820
2023-03-21T16:52:20.878Z,3084
2023-03-21T16:57:24.994Z,2811
2023-03-21T17:02:29.184Z,1310
2023-03-21T17:07:33.352Z,963
2023-03-21T17:12:37.483Z,743
2023-03-21T17:17:41.637Z,655
2023-03-21T17:22:45.792Z,486
2023-03-21T17:27:49.984Z,295
2023-03-21T17:32:54.113Z,162
2023-03-21T17:37:58.487Z,113
2023-03-21T17:43:02.451Z,75
2023-03-21T17:48:06.568Z,57
2023-03-21T17:53:10.778Z,36
2023-03-21T17:58:14.915Z,21
2023-03-21T18:03:19.753Z,9
2023-03-21T18:13:27.376Z,1
2023-03-21T18:18:31.569Z,0
2023-03-21T18:23:35.716Z,0
2023-03-21T18:28:41.162Z,0
2023-03-21T18:33:44.052Z,0
2023-03-21T18:38:48.209Z,0
2023-03-21T18:44:13.567Z,0
2023-03-21T18:48:55.254Z,0
2023-03-21T18:53:58.783Z,0
2023-03-21T18:59:01.121Z,0
2023-03-21T19:04:21.016Z,0
2023-03-21T19:09:09.919Z,0
2023-03-21T19:14:13.543Z,0
2023-03-21T19:19:17.823Z,0
2023-03-21T19:24:27.774Z,0
2023-03-21T19:29:26.227Z,0
2023-03-21T19:34:30.176Z,0
2023-03-21T19:39:34.335Z,0
2023-03-21T19:44:38.627Z,0
2023-03-21T19:50:30.646Z,0
2023-03-21T19:54:46.864Z,0
2023-03-21T19:59:50.988Z,0
2023-03-21T20:04:55.161Z,0
2023-03-21T20:09:59.334Z,0
2023-03-21T20:15:12.034Z,0
2023-03-21T20:20:07.655Z,0
2023-03-21T20:25:11.787Z,0
2023-03-21T20:30:15.968Z,0
2023-03-21T20:35:31.524Z,0
2023-03-21T20:40:24.286Z,0
2023-03-21T20:45:26.536Z,0
2023-03-21T20:50:30.902Z,0
2023-03-21T20:55:34.899Z,0
2023-03-21T21:00:39.281Z,0
2023-03-21T21:05:41.315Z,0
2023-03-21T21:11:19.065Z,0
2023-03-21T21:15:49.707Z,0
2023-03-21T21:20:53.860Z,0
2023-03-21T21:25:57.947Z,0
2023-03-21T21:31:02.203Z,0
2023-03-21T21:36:06.346Z,0
2023-03-21T21:41:10.433Z,0
2023-03-21T21:46:14.674Z,0
2023-03-21T21:51:18.792Z,0
2023-03-21T22:01:27.178Z,0
2023-03-21T22:06:31.239Z,0
2023-03-21T22:11:35.426Z,0
2023-03-21T22:16:39.746Z,0
2023-03-21T22:21:43.721Z,0
2023-03-21T22:26:47.960Z,0
2023-03-21T22:31:52.141Z,0
2023-03-21T22:36:56.214Z,0
2023-03-21T22:42:00.400Z,0
2023-03-21T22:47:04.529Z,0
2023-03-21T22:52:08.716Z,0
2023-03-21T22:57:10.996Z,0
2023-03-21T23:02:15.173Z,0
2023-03-21T23:07:17.434Z,0
2023-03-21T23:12:21.565Z,0
2023-03-21T23:17:25.700Z,0
2023-03-21T23:22:29.890Z,0
2023-03-21T23:27:34.026Z,0
2023-03-21T23:32:38.228Z,0
2023-03-21T23:37:42.465Z,0
2023-03-21T23:42:46.512Z,0
2023-03-21T23:47:50.741Z,0
2023-03-21T23:52:54.836Z,0
2023-03-21T23:57:59.061Z,0
